createdAt,value
2022-10-09T00:01:06.199Z,6.03
2022-10-09T00:03:33.236Z,6.04
2022-10-09T00:05:59.853Z,6.06
2022-10-09T00:08:26.612Z,5.98
2022-10-09T00:10:53.369Z,5.99
2022-10-09T00:13:20.080Z,5.94
2022-10-09T00:15:47.802Z,5.98
2022-10-09T00:18:16.287Z,5.99
2022-10-09T00:20:45.505Z,5.95
2022-10-09T00:23:17.507Z,6.03
2022-10-09T00:25:54.482Z,5.97
2022-10-09T00:28:22.183Z,5.89
2022-10-09T00:30:49.041Z,5.84
2022-10-09T00:33:15.955Z,5.80
2022-10-09T00:35:42.757Z,5.78
2022-10-09T00:38:09.463Z,5.85
2022-10-09T00:40:36.712Z,5.87
2022-10-09T00:43:04.048Z,5.82
2022-10-09T00:45:31.589Z,5.68
2022-10-09T00:48:00.971Z,5.74
2022-10-09T00:50:50.336Z,5.73
2022-10-09T00:53:18.704Z,5.65
2022-10-09T00:55:45.823Z,5.65
2022-10-09T00:58:13.066Z,5.80
2022-10-09T01:00:40.232Z,5.70
2022-10-09T01:03:07.186Z,5.70
2022-10-09T01:06:07.775Z,5.59
2022-10-09T01:08:48.181Z,5.51
2022-10-09T01:11:29.046Z,5.46
2022-10-09T01:13:58.033Z,5.58
2022-10-09T01:16:28.439Z,5.52
2022-10-09T01:19:06.801Z,5.45
2022-10-09T01:22:01.316Z,5.41
2022-10-09T01:24:39.361Z,5.39
2022-10-09T01:27:25.941Z,5.37
2022-10-09T01:29:56.077Z,5.42
2022-10-09T01:32:25.749Z,5.32
2022-10-09T01:34:52.942Z,5.35
2022-10-09T01:37:20.565Z,5.44
2022-10-09T01:39:48.600Z,5.49
2022-10-09T01:42:16.151Z,5.36
2022-10-09T01:44:42.945Z,5.35
2022-10-09T01:47:20.301Z,5.40
2022-10-09T01:50:06.825Z,5.42
2022-10-09T01:52:33.373Z,5.35
2022-10-09T01:55:02.549Z,5.38
2022-10-09T01:57:37.437Z,5.21
2022-10-09T02:00:08.578Z,5.28
2022-10-09T02:02:36.039Z,5.34
2022-10-09T02:05:03.152Z,5.40
2022-10-09T02:07:31.481Z,5.45
2022-10-09T02:09:59.776Z,5.42
2022-10-09T02:12:28.308Z,5.33
2022-10-09T02:14:54.917Z,5.45
2022-10-09T02:17:25.022Z,5.53
2022-10-09T02:19:55.669Z,5.43
2022-10-09T02:22:26.324Z,5.35
2022-10-09T02:24:53.189Z,5.37
2022-10-09T02:27:21.381Z,5.43
2022-10-09T02:29:48.430Z,5.26
2022-10-09T02:32:15.118Z,5.34
2022-10-09T02:34:41.781Z,5.27
2022-10-09T02:37:08.762Z,5.10
2022-10-09T02:39:35.450Z,5.17
2022-10-09T02:42:02.614Z,5.19
2022-10-09T02:44:29.208Z,5.19
2022-10-09T02:46:55.864Z,5.27
2022-10-09T02:49:22.489Z,5.16
2022-10-09T02:51:49.199Z,5.25
2022-10-09T02:54:15.833Z,5.24
2022-10-09T02:56:42.438Z,5.23
2022-10-09T02:59:09.198Z,5.19
2022-10-09T03:01:36.332Z,5.21
2022-10-09T03:04:03.067Z,5.22
2022-10-09T03:06:29.958Z,5.17
2022-10-09T03:08:56.987Z,5.16
2022-10-09T03:11:25.281Z,5.22
2022-10-09T03:13:52.082Z,5.18
2022-10-09T03:16:23.833Z,5.20
2022-10-09T03:18:51.581Z,5.09
2022-10-09T03:21:24.025Z,5.03
2022-10-09T03:23:51.151Z,5.09
2022-10-09T03:26:20.051Z,5.16
2022-10-09T03:28:48.985Z,5.14
2022-10-09T03:31:33.425Z,5.03
2022-10-09T03:34:03.709Z,4.98
2022-10-09T03:36:30.316Z,4.97
2022-10-09T03:38:56.931Z,4.91
2022-10-09T03:41:23.558Z,4.91
2022-10-09T03:43:50.184Z,4.95
2022-10-09T03:46:16.906Z,4.98
2022-10-09T03:48:43.581Z,5.02
2022-10-09T03:51:10.184Z,4.92
2022-10-09T03:53:36.815Z,4.87
2022-10-09T03:56:03.461Z,4.95
2022-10-09T03:58:30.099Z,5.02
2022-10-09T04:00:56.978Z,4.95
2022-10-09T04:03:23.818Z,4.88
2022-10-09T04:05:50.453Z,4.85
2022-10-09T04:08:17.094Z,4.76
2022-10-09T04:10:45.785Z,4.73
2022-10-09T04:13:12.450Z,4.78
2022-10-09T04:15:39.150Z,4.74
2022-10-09T04:18:06.146Z,4.69
2022-10-09T04:20:33.014Z,4.47
2022-10-09T04:22:59.775Z,4.69
2022-10-09T04:25:26.406Z,4.78
2022-10-09T04:27:53.042Z,4.66
2022-10-09T04:30:19.668Z,4.63
2022-10-09T04:32:47.932Z,4.69
2022-10-09T04:35:14.992Z,4.71
2022-10-09T04:37:41.684Z,4.58
2022-10-09T04:40:08.715Z,4.55
2022-10-09T04:42:35.336Z,4.52
2022-10-09T04:45:02.011Z,4.49
2022-10-09T04:47:28.608Z,4.58
2022-10-09T04:49:55.225Z,4.50
2022-10-09T04:52:21.821Z,4.47
2022-10-09T04:54:48.432Z,4.46
2022-10-09T04:57:15.044Z,4.50
2022-10-09T04:59:41.721Z,4.41
2022-10-09T05:02:08.421Z,4.48
2022-10-09T05:04:35.120Z,4.41
2022-10-09T05:07:01.814Z,4.44
2022-10-09T05:09:28.406Z,4.37
2022-10-09T05:11:55.161Z,4.39
2022-10-09T05:14:21.916Z,4.37
2022-10-09T05:17:12.506Z,4.39
2022-10-09T05:19:38.971Z,4.36
2022-10-09T05:22:05.606Z,4.27
2022-10-09T05:24:32.389Z,4.31
2022-10-09T05:26:59.017Z,4.33
2022-10-09T05:29:25.621Z,4.35
2022-10-09T05:31:52.307Z,4.35
2022-10-09T05:34:19.033Z,4.30
2022-10-09T05:36:45.791Z,4.33
2022-10-09T05:39:12.630Z,4.22
2022-10-09T05:41:39.213Z,4.37
2022-10-09T05:44:05.917Z,4.34
2022-10-09T05:46:32.710Z,4.34
2022-10-09T05:49:01.882Z,4.33
2022-10-09T05:51:33.109Z,4.34
2022-10-09T05:54:02.038Z,4.29
2022-10-09T05:56:33.542Z,4.24
2022-10-09T05:59:02.319Z,4.48
2022-10-09T06:01:57.592Z,4.31
2022-10-09T06:04:25.033Z,4.34
2022-10-09T06:06:52.077Z,4.31
2022-10-09T06:09:25.386Z,4.26
2022-10-09T06:11:53.458Z,4.25
2022-10-09T06:14:24.469Z,4.20
2022-10-09T06:16:51.361Z,4.35
2022-10-09T06:19:19.387Z,4.36
2022-10-09T06:21:47.242Z,4.32
2022-10-09T06:24:27.277Z,4.39
2022-10-09T06:26:56.999Z,4.36
2022-10-09T06:29:23.619Z,4.45
2022-10-09T06:31:51.421Z,4.44
2022-10-09T06:34:18.109Z,4.45
2022-10-09T06:36:44.729Z,4.50
2022-10-09T06:39:11.421Z,4.44
2022-10-09T06:41:38.045Z,4.44
2022-10-09T06:44:07.588Z,4.35
2022-10-09T06:46:39.025Z,4.54
2022-10-09T06:49:06.673Z,4.75
2022-10-09T06:51:34.356Z,4.81
2022-10-09T06:54:03.048Z,4.84
2022-10-09T06:56:31.808Z,4.89
2022-10-09T06:59:02.029Z,5.04
2022-10-09T07:01:32.654Z,5.03
2022-10-09T07:04:05.790Z,5.06
2022-10-09T07:06:33.611Z,5.10
2022-10-09T07:09:04.406Z,5.11
2022-10-09T07:11:33.718Z,5.26
2022-10-09T07:14:01.976Z,5.31
2022-10-09T07:16:31.369Z,5.33
2022-10-09T07:18:58.229Z,5.45
2022-10-09T07:21:24.920Z,5.53
2022-10-09T07:23:51.556Z,5.68
2022-10-09T07:26:21.661Z,5.81
2022-10-09T07:28:48.853Z,5.88
2022-10-09T07:31:16.039Z,6.08
2022-10-09T07:33:42.907Z,6.24
2022-10-09T07:36:10.183Z,6.40
2022-10-09T07:38:37.277Z,6.86
2022-10-09T07:41:09.436Z,7.11
2022-10-09T07:43:37.118Z,7.17
2022-10-09T07:46:05.405Z,7.32
2022-10-09T07:48:32.333Z,7.59
2022-10-09T07:51:10.652Z,7.60
2022-10-09T07:53:38.697Z,7.65
2022-10-09T07:56:05.943Z,8.08
2022-10-09T07:58:33.430Z,8.31
2022-10-09T08:01:07.487Z,8.48
2022-10-09T08:03:35.105Z,8.76
2022-10-09T08:06:03.074Z,8.91
2022-10-09T08:08:29.724Z,9.14
2022-10-09T08:10:57.429Z,9.43
2022-10-09T08:13:25.111Z,9.57
2022-10-09T08:15:51.874Z,9.90
2022-10-09T08:18:19.574Z,10.25
2022-10-09T08:20:56.608Z,10.29
2022-10-09T08:23:23.216Z,10.32
2022-10-09T08:25:56.140Z,10.62
2022-10-09T08:28:23.205Z,10.62
2022-10-09T08:30:50.016Z,10.55
2022-10-09T08:33:21.814Z,10.65
2022-10-09T08:35:49.946Z,10.83
2022-10-09T08:38:37.417Z,10.88
2022-10-09T08:41:14.702Z,10.89
2022-10-09T08:43:45.698Z,10.97
2022-10-09T08:46:23.686Z,11.11
2022-10-09T08:48:51.888Z,11.10
2022-10-09T08:51:25.781Z,11.38
2022-10-09T08:54:01.813Z,11.35
2022-10-09T08:56:29.341Z,11.48
2022-10-09T08:58:56.213Z,11.68
2022-10-09T09:01:45.552Z,11.96
2022-10-09T09:04:25.533Z,11.97
2022-10-09T09:06:57.802Z,12.09
2022-10-09T09:09:46.333Z,12.09
2022-10-09T09:12:19.703Z,12.07
2022-10-09T09:15:13.409Z,12.10
2022-10-09T09:17:59.089Z,12.14
2022-10-09T09:20:43.660Z,12.24
2022-10-09T09:23:14.550Z,12.51
2022-10-09T09:25:43.212Z,12.64
2022-10-09T09:28:23.940Z,12.67
2022-10-09T09:30:58.174Z,12.57
2022-10-09T09:33:45.887Z,12.82
2022-10-09T09:36:19.947Z,12.60
2022-10-09T09:39:24.896Z,12.87
2022-10-09T09:41:33.629Z,13.10
2022-10-09T09:44:00.242Z,13.12
2022-10-09T09:46:29.622Z,12.79
2022-10-09T09:48:56.428Z,12.98
2022-10-09T09:51:29.335Z,13.40
2022-10-09T09:54:00.342Z,13.66
2022-10-09T09:57:06.981Z,13.92
2022-10-09T09:59:27.844Z,14.26
2022-10-09T10:02:02.122Z,14.05
2022-10-09T10:04:28.857Z,13.70
2022-10-09T10:06:55.627Z,13.98
2022-10-09T10:09:22.249Z,14.00
2022-10-09T10:11:57.016Z,14.20
2022-10-09T10:14:23.818Z,14.18
2022-10-09T10:16:52.246Z,14.21
2022-10-09T10:19:25.222Z,14.41
2022-10-09T10:21:57.182Z,14.34
2022-10-09T10:24:28.138Z,14.24
2022-10-09T10:27:00.393Z,14.50
2022-10-09T10:29:39.281Z,14.46
2022-10-09T10:32:14.940Z,14.50
2022-10-09T10:34:44.522Z,14.59
2022-10-09T10:37:15.035Z,14.97
2022-10-09T10:39:50.324Z,15.06
2022-10-09T10:42:22.721Z,15.08
2022-10-09T10:44:55.225Z,14.85
2022-10-09T10:47:24.533Z,14.73
2022-10-09T10:49:51.224Z,14.62
2022-10-09T10:52:17.794Z,14.79
2022-10-09T10:55:26.905Z,14.95
2022-10-09T10:58:25.850Z,15.13
2022-10-09T11:01:21.708Z,15.20
2022-10-09T11:04:30.053Z,15.53
2022-10-09T11:07:02.884Z,15.38
2022-10-09T11:09:44.655Z,15.12
2022-10-09T11:12:46.815Z,15.15
2022-10-09T11:15:37.908Z,15.06
2022-10-09T11:18:20.561Z,15.07
2022-10-09T11:21:11.816Z,15.17
2022-10-09T11:23:57.372Z,15.07
2022-10-09T11:26:46.532Z,15.11
2022-10-09T11:29:27.605Z,15.35
2022-10-09T11:31:59.818Z,15.54
2022-10-09T11:34:59.662Z,15.34
2022-10-09T11:37:31.471Z,15.39
2022-10-09T11:39:58.136Z,15.48
2022-10-09T11:42:25.934Z,15.78
2022-10-09T11:45:29.923Z,15.61
2022-10-09T11:48:30.451Z,15.58
2022-10-09T11:50:59.993Z,15.84
2022-10-09T11:53:27.969Z,15.66
2022-10-09T11:56:06.344Z,15.48
2022-10-09T11:58:33.245Z,15.47
2022-10-09T12:01:12.769Z,15.16
2022-10-09T12:03:40.151Z,15.09
2022-10-09T12:06:11.372Z,15.37
2022-10-09T12:08:53.765Z,15.50
2022-10-09T12:11:20.421Z,15.83
2022-10-09T12:13:51.091Z,15.36
2022-10-09T12:16:29.964Z,15.35
2022-10-09T12:19:00.860Z,15.36
2022-10-09T12:21:56.665Z,15.56
2022-10-09T12:24:26.417Z,15.77
2022-10-09T12:26:55.725Z,15.76
2022-10-09T12:29:32.334Z,15.52
2022-10-09T12:32:04.239Z,15.18
2022-10-09T12:34:33.920Z,15.44
2022-10-09T12:37:20.890Z,15.06
2022-10-09T12:39:49.926Z,15.02
2022-10-09T12:42:20.859Z,15.34
2022-10-09T12:44:49.669Z,15.20
2022-10-09T12:47:22.177Z,14.95
2022-10-09T12:50:24.547Z,15.03
2022-10-09T12:53:02.548Z,15.31
2022-10-09T12:55:32.836Z,15.22
2022-10-09T12:58:06.207Z,14.88
2022-10-09T13:00:34.222Z,14.68
2022-10-09T13:03:01.618Z,14.81
2022-10-09T13:05:41.715Z,15.15
2022-10-09T13:08:29.477Z,15.07
2022-10-09T13:11:38.097Z,14.83
2022-10-09T13:14:05.368Z,15.10
2022-10-09T13:16:45.148Z,15.25
2022-10-09T13:19:25.347Z,15.07
2022-10-09T13:22:06.692Z,14.62
2022-10-09T13:24:35.818Z,14.83
2022-10-09T13:27:04.074Z,15.01
2022-10-09T13:29:31.469Z,15.22
2022-10-09T13:31:58.593Z,15.22
2022-10-09T13:34:28.394Z,15.30
2022-10-09T13:36:56.394Z,15.07
2022-10-09T13:39:22.998Z,15.16
2022-10-09T13:41:53.091Z,15.39
2022-10-09T13:44:19.776Z,15.42
2022-10-09T13:46:46.376Z,15.45
2022-10-09T13:49:13.023Z,15.51
2022-10-09T13:51:39.636Z,15.18
2022-10-09T13:54:06.260Z,15.17
2022-10-09T13:56:33.986Z,15.38
2022-10-09T13:59:00.709Z,15.40
2022-10-09T14:01:27.368Z,15.35
2022-10-09T14:03:54.525Z,15.24
2022-10-09T14:06:22.502Z,15.31
2022-10-09T14:08:49.849Z,15.57
2022-10-09T14:11:16.614Z,15.52
2022-10-09T14:13:43.208Z,15.39
2022-10-09T14:16:11.260Z,15.16
2022-10-09T14:18:38.320Z,15.06
2022-10-09T14:21:14.041Z,15.20
2022-10-09T14:23:41.887Z,15.22
2022-10-09T14:26:08.549Z,15.20
2022-10-09T14:28:35.304Z,15.07
2022-10-09T14:31:07.454Z,15.03
2022-10-09T14:33:34.165Z,14.98
2022-10-09T14:36:11.959Z,15.02
2022-10-09T14:38:39.308Z,15.20
2022-10-09T14:41:07.204Z,15.27
2022-10-09T14:43:33.824Z,15.16
2022-10-09T14:46:09.199Z,15.28
2022-10-09T14:48:36.038Z,15.29
2022-10-09T14:51:07.070Z,15.47
2022-10-09T14:53:34.112Z,15.25
2022-10-09T14:56:02.652Z,15.13
2022-10-09T14:58:31.081Z,15.36
2022-10-09T15:00:58.079Z,14.95
2022-10-09T15:03:25.801Z,15.11
2022-10-09T15:05:52.531Z,15.02
2022-10-09T15:08:19.225Z,14.77
2022-10-09T15:10:45.849Z,15.07
2022-10-09T15:13:12.493Z,15.03
2022-10-09T15:15:40.086Z,15.13
2022-10-09T15:18:06.852Z,14.98
2022-10-09T15:20:33.497Z,14.97
2022-10-09T15:23:00.154Z,15.21
2022-10-09T15:25:31.555Z,14.87
2022-10-09T15:28:01.891Z,15.17
2022-10-09T15:30:29.103Z,15.21
2022-10-09T15:32:56.459Z,15.11
2022-10-09T15:35:23.146Z,14.80
2022-10-09T15:37:53.732Z,14.69
2022-10-09T15:40:22.344Z,14.68
2022-10-09T15:42:49.325Z,14.50
2022-10-09T15:45:16.113Z,14.78
2022-10-09T15:47:50.923Z,14.88
2022-10-09T15:50:18.111Z,14.80
2022-10-09T15:52:44.782Z,14.51
2022-10-09T15:55:11.459Z,14.60
2022-10-09T15:57:38.099Z,14.63
2022-10-09T16:00:05.256Z,14.68
2022-10-09T16:02:31.929Z,14.84
2022-10-09T16:04:58.525Z,14.94
2022-10-09T16:07:25.160Z,14.78
2022-10-09T16:09:51.821Z,14.57
2022-10-09T16:12:18.420Z,14.61
2022-10-09T16:14:45.048Z,14.82
2022-10-09T16:17:11.690Z,14.78
2022-10-09T16:19:38.309Z,14.82
2022-10-09T16:22:06.021Z,14.63
2022-10-09T16:24:32.790Z,14.59
2022-10-09T16:27:01.418Z,14.71
2022-10-09T16:29:28.089Z,14.50
2022-10-09T16:31:56.245Z,14.53
2022-10-09T16:34:22.928Z,14.24
2022-10-09T16:36:49.569Z,14.25
2022-10-09T16:39:17.333Z,14.18
2022-10-09T16:41:43.933Z,14.07
2022-10-09T16:44:14.311Z,14.13
2022-10-09T16:46:40.940Z,14.25
2022-10-09T16:49:07.593Z,14.19
2022-10-09T16:51:36.169Z,14.35
2022-10-09T16:54:04.956Z,14.48
2022-10-09T16:56:35.083Z,14.52
2022-10-09T16:59:05.305Z,14.47
2022-10-09T17:01:32.527Z,14.04
2022-10-09T17:04:00.005Z,14.27
2022-10-09T17:06:27.666Z,14.13
2022-10-09T17:08:56.496Z,14.14
2022-10-09T17:11:23.907Z,14.43
2022-10-09T17:13:50.597Z,14.31
2022-10-09T17:16:20.765Z,14.16
2022-10-09T17:18:48.470Z,14.23
2022-10-09T17:21:15.973Z,14.25
2022-10-09T17:23:42.641Z,13.86
2022-10-09T17:26:12.252Z,13.84
2022-10-09T17:28:40.954Z,13.87
2022-10-09T17:31:16.481Z,13.89
2022-10-09T17:33:46.204Z,13.67
2022-10-09T17:36:17.617Z,13.85
2022-10-09T17:38:44.857Z,13.99
2022-10-09T17:41:12.682Z,14.12
2022-10-09T17:43:39.612Z,14.13
2022-10-09T17:46:06.818Z,14.06
2022-10-09T17:48:34.806Z,14.13
2022-10-09T17:51:04.012Z,14.13
2022-10-09T17:53:31.288Z,14.15
2022-10-09T17:56:02.804Z,14.01
2022-10-09T17:58:30.405Z,14.13
2022-10-09T18:00:57.109Z,13.94
2022-10-09T18:03:23.796Z,13.96
2022-10-09T18:05:50.888Z,13.91
2022-10-09T18:08:18.930Z,13.93
2022-10-09T18:10:45.908Z,13.86
2022-10-09T18:13:12.542Z,13.38
2022-10-09T18:15:43.858Z,13.69
2022-10-09T18:18:11.209Z,13.72
2022-10-09T18:20:39.708Z,13.74
2022-10-09T18:23:07.639Z,13.72
2022-10-09T18:25:34.530Z,13.57
2022-10-09T18:28:01.139Z,13.55
2022-10-09T18:30:27.874Z,13.85
2022-10-09T18:32:54.506Z,13.85
2022-10-09T18:35:21.389Z,13.84
2022-10-09T18:37:48.018Z,13.69
2022-10-09T18:40:15.641Z,13.64
2022-10-09T18:42:42.261Z,13.56
2022-10-09T18:45:10.601Z,13.61
2022-10-09T18:47:37.340Z,13.47
2022-10-09T18:50:08.148Z,13.46
2022-10-09T18:52:35.695Z,13.60
2022-10-09T18:55:02.877Z,13.49
2022-10-09T18:57:29.719Z,13.41
2022-10-09T18:59:57.677Z,13.53
2022-10-09T19:02:27.040Z,13.49
2022-10-09T19:04:54.682Z,13.44
2022-10-09T19:07:22.632Z,13.41
2022-10-09T19:09:53.545Z,13.44
2022-10-09T19:12:23.170Z,13.57
2022-10-09T19:14:49.986Z,13.60
2022-10-09T19:17:16.604Z,13.52
2022-10-09T19:19:43.252Z,13.50
2022-10-09T19:22:14.818Z,13.41
2022-10-09T19:24:43.828Z,13.30
2022-10-09T19:27:10.473Z,13.41
2022-10-09T19:29:37.202Z,13.48
2022-10-09T19:32:04.154Z,13.47
2022-10-09T19:34:31.004Z,13.46
2022-10-09T19:36:57.807Z,13.64
2022-10-09T19:39:24.729Z,13.66
2022-10-09T19:41:51.383Z,13.67
2022-10-09T19:44:18.697Z,13.61
2022-10-09T19:46:45.886Z,13.63
2022-10-09T19:49:12.529Z,13.53
2022-10-09T19:51:39.230Z,13.52
2022-10-09T19:54:06.895Z,13.51
2022-10-09T19:56:34.737Z,13.35
2022-10-09T19:59:03.269Z,13.37
2022-10-09T20:01:31.027Z,13.53
2022-10-09T20:03:59.789Z,13.52
2022-10-09T20:06:27.533Z,13.55
2022-10-09T20:08:54.637Z,13.52
2022-10-09T20:11:21.568Z,13.42
2022-10-09T20:13:53.450Z,13.52
2022-10-09T20:16:23.112Z,13.48
2022-10-09T20:18:49.756Z,13.47
2022-10-09T20:21:18.178Z,13.34
2022-10-09T20:23:45.023Z,13.45
2022-10-09T20:26:14.395Z,13.45
2022-10-09T20:28:41.410Z,13.50
2022-10-09T20:31:14.716Z,13.42
2022-10-09T20:33:42.109Z,13.29
2022-10-09T20:36:18.084Z,13.17
2022-10-09T20:38:44.709Z,13.26
2022-10-09T20:41:11.899Z,13.29
2022-10-09T20:43:40.253Z,13.41
2022-10-09T20:46:12.467Z,13.40
2022-10-09T20:48:39.861Z,13.30
2022-10-09T20:51:06.721Z,13.28
2022-10-09T20:53:33.733Z,13.30
2022-10-09T20:56:05.828Z,13.26
2022-10-09T20:58:32.748Z,13.38
2022-10-09T21:00:59.517Z,13.37
2022-10-09T21:03:26.493Z,13.28
2022-10-09T21:05:53.109Z,13.31
2022-10-09T21:08:19.816Z,13.25
2022-10-09T21:10:48.368Z,13.31
2022-10-09T21:13:15.437Z,13.35
2022-10-09T21:15:44.410Z,13.29
2022-10-09T21:18:11.509Z,13.21
2022-10-09T21:20:39.667Z,13.22
2022-10-09T21:23:06.785Z,13.21
2022-10-09T21:25:33.913Z,13.11
2022-10-09T21:28:00.721Z,13.11
2022-10-09T21:30:28.421Z,13.13
2022-10-09T21:32:55.592Z,13.12
2022-10-09T21:35:23.532Z,13.05
2022-10-09T21:37:51.173Z,12.90
2022-10-09T21:40:18.230Z,12.81
2022-10-09T21:42:44.903Z,12.74
2022-10-09T21:45:13.591Z,12.65
2022-10-09T21:47:40.228Z,12.80
2022-10-09T21:50:07.411Z,12.82
2022-10-09T21:52:34.075Z,12.82
2022-10-09T21:55:00.677Z,12.93
2022-10-09T21:57:27.311Z,12.82
2022-10-09T21:59:53.926Z,12.98
2022-10-09T22:02:20.617Z,12.96
2022-10-09T22:04:47.307Z,12.88
2022-10-09T22:07:13.952Z,12.72
2022-10-09T22:09:40.583Z,12.68
2022-10-09T22:12:07.229Z,12.74
2022-10-09T22:14:33.823Z,12.79
2022-10-09T22:17:00.432Z,12.77
2022-10-09T22:19:27.077Z,12.70
2022-10-09T22:21:53.710Z,12.59
2022-10-09T22:24:20.329Z,12.67
2022-10-09T22:26:46.953Z,12.65
2022-10-09T22:29:13.585Z,12.63
2022-10-09T22:31:40.266Z,12.63
2022-10-09T22:34:06.920Z,12.68
2022-10-09T22:36:33.783Z,12.61
2022-10-09T22:39:02.481Z,12.69
2022-10-09T22:41:30.372Z,12.69
2022-10-09T22:43:58.530Z,12.71
2022-10-09T22:46:32.833Z,12.69
2022-10-09T22:49:00.089Z,12.71
2022-10-09T22:51:28.482Z,12.67
2022-10-09T22:53:56.193Z,12.66
2022-10-09T22:56:28.812Z,12.52
2022-10-09T22:58:56.151Z,12.48
2022-10-09T23:01:27.261Z,12.51
2022-10-09T23:03:53.932Z,12.41
2022-10-09T23:06:20.728Z,12.33
2022-10-09T23:08:48.529Z,12.34
2022-10-09T23:11:16.528Z,12.37
2022-10-09T23:13:43.789Z,12.45
2022-10-09T23:16:11.900Z,12.46
2022-10-09T23:18:38.880Z,12.46
2022-10-09T23:21:08.253Z,12.30
2022-10-09T23:23:35.157Z,12.20
2022-10-09T23:26:09.644Z,12.14
2022-10-09T23:28:36.408Z,12.18
2022-10-09T23:31:05.254Z,12.24
2022-10-09T23:33:31.923Z,12.26
2022-10-09T23:35:58.878Z,12.34
2022-10-09T23:38:25.512Z,12.32
2022-10-09T23:40:59.114Z,12.40
2022-10-09T23:43:26.181Z,12.36
2022-10-09T23:45:55.122Z,12.34
2022-10-09T23:48:21.985Z,12.25
2022-10-09T23:50:49.507Z,12.33
2022-10-09T23:53:17.071Z,12.31
2022-10-09T23:55:44.543Z,12.27
2022-10-09T23:58:12.462Z,12.28
